Time;durP1;ratioP1;P1;durP2;ratioP2;P2;SDS_P1;SDS_P2;PMS_P1;PMS_P2;Temp;Humidity;BMP_temperature;BMP_pressure;BME280_temperature;BME280_humidity;BME280_pressure;Samples;Min_cycle;Max_cycle;Signal;HPM_P1;HPM_P2
2021/12/12 00:01:27;;;;;;;7.20;3.63;;;;;;;1.44;nan;99151.19;5026669;28;20128;-59
2021/12/12 00:03:56;;;;;;;9.07;4.47;;;;;;;1.44;nan;99142.75;5028499;28;20141;-58
2021/12/12 00:06:30;;;;;;;6.77;3.47;;;;;;;1.39;nan;99157.78;5026652;28;20041;-59
2021/12/12 00:09:00;;;;;;;6.07;3.70;;;;;;;1.37;nan;99150.16;5029866;28;20886;-57
2021/12/12 00:11:30;;;;;;;5.53;3.50;;;;;;;1.40;nan;99146.84;5030262;28;20680;-60
2021/12/12 00:14:04;;;;;;;7.03;4.03;;;;;;;1.40;nan;99159.47;5028084;28;20052;-60
2021/12/12 00:16:30;;;;;;;6.37;4.33;;;;;;;1.27;nan;99165.88;5026589;28;20044;-57
2021/12/12 00:18:57;;;;;;;7.40;4.93;;;;;;;1.27;nan;99162.53;5030602;28;20526;-60
2021/12/12 00:21:26;;;;;;;5.90;5.20;;;;;;;1.21;nan;99154.78;5032340;28;20045;-59
2021/12/12 00:23:52;;;;;;;9.87;4.87;;;;;;;1.26;nan;99168.38;5026483;28;20107;-57
2021/12/12 00:26:17;;;;;;;6.37;3.63;;;;;;;1.22;nan;99162.41;5030907;28;20438;-57
2021/12/12 00:28:43;;;;;;;5.97;4.13;;;;;;;1.21;nan;99159.81;5030812;28;20604;-59
2021/12/12 00:31:14;;;;;;;7.37;4.13;;;;;;;1.28;nan;99166.75;5033900;28;20030;-60
2021/12/12 00:33:47;;;;;;;7.40;4.77;;;;;;;1.22;nan;99172.50;5028888;28;20064;-58
2021/12/12 00:36:16;;;;;;;7.50;4.00;;;;;;;1.17;nan;99168.13;5011691;28;20121;-58
2021/12/12 00:38:43;;;;;;;5.90;4.10;;;;;;;1.15;nan;99174.81;5031969;28;20113;-59
2021/12/12 00:41:11;;;;;;;7.27;4.27;;;;;;;1.17;nan;99170.66;5029351;28;20481;-58
2021/12/12 00:43:45;;;;;;;6.57;4.00;;;;;;;1.21;nan;99165.75;5029255;28;20430;-59
2021/12/12 00:46:12;;;;;;;5.73;4.23;;;;;;;1.24;nan;99167.47;5030631;28;20410;-57
2021/12/12 00:48:40;;;;;;;7.23;4.80;;;;;;;1.15;nan;99167.22;5032170;28;20080;-60
2021/12/12 00:51:09;;;;;;;10.20;4.33;;;;;;;1.15;nan;99165.56;5029709;28;20431;-58
2021/12/12 00:53:35;;;;;;;6.30;5.30;;;;;;;1.15;nan;99172.28;5030347;28;20380;-60
2021/12/12 00:56:01;;;;;;;6.40;5.43;;;;;;;1.09;nan;99170.47;5029485;28;20072;-60
2021/12/12 00:58:26;;;;;;;6.00;4.47;;;;;;;1.17;nan;99158.03;5033285;28;20487;-59
2021/12/12 01:00:56;;;;;;;6.43;4.03;;;;;;;1.16;nan;99179.03;5030297;28;20700;-59
2021/12/12 01:03:36;;;;;;;11.83;6.27;;;;;;;1.16;nan;99163.91;5025586;28;20492;-61
2021/12/12 01:06:06;;;;;;;9.03;5.57;;;;;;;1.15;nan;99163.03;5029535;28;20407;-58
2021/12/12 01:08:33;;;;;;;8.70;5.97;;;;;;;1.07;nan;99178.78;5025449;28;20037;-59
2021/12/12 01:11:07;;;;;;;6.70;4.80;;;;;;;1.11;nan;99173.88;5020556;28;20156;-59
2021/12/12 01:13:34;;;;;;;11.67;5.70;;;;;;;1.05;nan;99188.88;5025818;28;20036;-58
2021/12/12 01:16:09;;;;;;;10.60;5.47;;;;;;;1.15;nan;99188.28;5029834;28;20052;-59
2021/12/12 01:18:39;;;;;;;6.22;4.22;;;;;;;1.10;nan;99197.44;5025827;28;20219;-59
2021/12/12 01:21:16;;;;;;;9.53;4.90;;;;;;;1.16;nan;99163.91;5027420;28;20037;-55
2021/12/12 01:23:49;;;;;;;11.10;5.23;;;;;;;1.19;nan;99189.25;5025711;28;20073;-60
2021/12/12 01:26:15;;;;;;;8.97;5.20;;;;;;;1.10;nan;99194.03;5029859;28;20045;-59
2021/12/12 01:28:43;;;;;;;9.53;4.70;;;;;;;1.03;nan;99175.34;5028329;28;20080;-59
2021/12/12 01:31:15;;;;;;;8.40;5.20;;;;;;;1.09;nan;99189.81;5031580;28;20099;-56
2021/12/12 01:33:41;;;;;;;8.97;5.70;;;;;;;1.10;nan;99182.28;5033489;28;20037;-56
2021/12/12 01:36:27;;;;;;;7.70;4.63;;;;;;;1.12;nan;99190.72;5030212;28;20052;-56
2021/12/12 01:38:55;;;;;;;12.35;4.97;;;;;;;1.08;nan;99203.22;5026902;28;20048;-56
2021/12/12 01:41:27;;;;;;;8.80;5.00;;;;;;;1.12;nan;99212.59;5024523;28;20053;-62
2021/12/12 01:43:58;;;;;;;8.00;4.20;;;;;;;1.12;nan;99203.38;5024952;28;20056;-60
2021/12/12 01:46:29;;;;;;;7.07;5.50;;;;;;;1.10;nan;99204.16;5026375;28;20033;-57
2021/12/12 01:49:03;;;;;;;8.03;4.20;;;;;;;1.08;nan;99209.13;5024011;28;20044;-56
2021/12/12 01:51:30;;;;;;;8.73;4.87;;;;;;;1.05;nan;99208.22;5028174;28;20037;-58
2021/12/12 01:53:59;;;;;;;8.97;5.10;;;;;;;1.15;nan;99216.06;5028221;28;20025;-57
2021/12/12 01:56:42;;;;;;;6.70;4.67;;;;;;;1.19;nan;99215.31;5025503;28;20037;-59
2021/12/12 01:59:11;;;;;;;7.17;4.80;;;;;;;1.17;nan;99214.44;5025937;28;20036;-58
2021/12/12 02:01:41;;;;;;;5.63;3.87;;;;;;;1.22;nan;99214.56;5027263;28;20049;-60
2021/12/12 02:04:16;;;;;;;12.63;5.20;;;;;;;1.28;nan;99212.19;5026454;28;20036;-60
2021/12/12 02:06:49;;;;;;;7.20;4.43;;;;;;;1.27;nan;99210.50;5024938;28;20065;-58
2021/12/12 02:09:16;;;;;;;6.17;3.70;;;;;;;1.32;nan;99214.00;5024205;28;20037;-59
2021/12/12 02:11:44;;;;;;;6.53;4.37;;;;;;;1.21;nan;99215.38;5025240;28;20375;-56
2021/12/12 02:14:13;;;;;;;6.80;3.87;;;;;;;1.31;nan;99214.81;5028099;28;20390;-57
2021/12/12 02:16:43;;;;;;;11.57;3.53;;;;;;;1.28;nan;99222.28;5023352;28;20037;-57
2021/12/12 02:19:09;;;;;;;6.20;3.40;;;;;;;1.23;nan;99222.16;5025098;28;20454;-59
2021/12/12 02:21:55;;;;;;;4.40;3.37;;;;;;;1.31;nan;99220.75;5026980;28;20140;-63
2021/12/12 02:35:08;;;;;;;3.42;2.83;;;;;;;1.36;nan;99230.94;5025176;28;20465;-59
2021/12/12 02:37:40;;;;;;;5.73;3.33;;;;;;;1.32;nan;99247.69;5023502;28;20426;-58
2021/12/12 02:40:10;;;;;;;7.07;3.80;;;;;;;1.34;nan;99261.22;5029416;28;20045;-59
2021/12/12 02:42:36;;;;;;;5.67;3.47;;;;;;;1.37;nan;99255.38;5028271;28;20631;-58
2021/12/12 02:45:05;;;;;;;4.33;3.93;;;;;;;1.36;nan;99253.66;5021301;28;20060;-60
2021/12/12 02:47:33;;;;;;;5.43;3.67;;;;;;;1.31;nan;99257.75;5025970;28;20491;-59
2021/12/12 02:50:13;;;;;;;5.83;3.57;;;;;;;1.30;nan;99267.00;5008364;28;20082;-58
2021/12/12 02:52:42;;;;;;;6.40;3.97;;;;;;;1.30;nan;99244.28;5026368;28;20583;-57
2021/12/12 02:55:22;;;;;;;6.27;3.67;;;;;;;1.32;nan;99260.31;5021804;28;20047;-59
2021/12/12 02:57:47;;;;;;;4.30;3.90;;;;;;;1.26;nan;99254.25;5024454;28;20480;-59
2021/12/12 03:00:17;;;;;;;4.90;3.53;;;;;;;1.27;nan;99256.78;5029093;28;20081;-58
2021/12/12 03:02:46;;;;;;;3.73;2.90;;;;;;;1.21;nan;99256.66;5025970;28;20029;-59
2021/12/12 03:05:18;;;;;;;3.93;2.87;;;;;;;1.29;nan;99259.38;5021396;28;20041;-57
2021/12/12 03:07:45;;;;;;;7.13;3.37;;;;;;;1.26;nan;99246.66;5027520;28;20044;-59
2021/12/12 03:10:16;;;;;;;4.80;3.23;;;;;;;1.32;nan;99259.44;5026926;28;20516;-59
2021/12/12 03:12:42;;;;;;;5.37;3.47;;;;;;;1.33;nan;99251.06;5024818;28;20037;-59
2021/12/12 03:15:15;;;;;;;3.23;2.93;;;;;;;1.35;nan;99260.41;5023785;28;20411;-58
2021/12/12 03:17:42;;;;;;;3.90;3.23;;;;;;;1.29;nan;99274.53;5023475;28;20460;-60
2021/12/12 03:20:37;;;;;;;4.67;3.10;;;;;;;1.33;nan;99267.09;5026488;28;20160;-59
2021/12/12 03:23:19;;;;;;;5.97;4.17;;;;;;;1.30;nan;99261.09;5021792;28;20042;-59
2021/12/12 03:25:46;;;;;;;6.03;3.53;;;;;;;1.36;nan;99264.63;5024619;28;20045;-60
2021/12/12 03:28:16;;;;;;;8.53;5.40;;;;;;;1.34;nan;99252.78;5026242;28;20037;-61
2021/12/12 03:30:44;;;;;;;10.40;5.43;;;;;;;1.33;nan;99259.50;5025620;28;20034;-59
2021/12/12 03:33:09;;;;;;;7.60;4.50;;;;;;;1.26;nan;99266.88;5020131;28;20104;-60
2021/12/12 03:35:35;;;;;;;6.03;3.80;;;;;;;1.32;nan;99259.44;5026074;28;20407;-61
2021/12/12 03:38:02;;;;;;;7.30;5.23;;;;;;;1.36;nan;99262.09;5026548;28;20025;-58
2021/12/12 03:40:33;;;;;;;6.90;4.47;;;;;;;1.41;nan;99258.84;5023410;28;20651;-57
2021/12/12 03:42:59;;;;;;;11.03;4.83;;;;;;;1.36;nan;99266.28;5022906;28;20056;-61
2021/12/12 03:45:27;;;;;;;8.47;5.50;;;;;;;1.39;nan;99276.50;5025137;28;20049;-61
2021/12/12 03:48:00;;;;;;;5.93;4.43;;;;;;;1.44;nan;99274.09;5026995;28;20435;-60
2021/12/12 03:50:33;;;;;;;8.80;5.47;;;;;;;1.38;nan;99265.53;5026541;28;20236;-58
2021/12/12 03:52:59;;;;;;;9.03;5.73;;;;;;;1.32;nan;99265.34;5021393;28;20447;-59
2021/12/12 03:55:26;;;;;;;10.10;6.23;;;;;;;1.43;nan;99269.88;5026866;28;20072;-59
2021/12/12 03:57:53;;;;;;;12.70;7.00;;;;;;;1.40;nan;99269.78;5027600;28;20037;-58
2021/12/12 04:00:24;;;;;;;11.87;7.43;;;;;;;1.47;nan;99264.06;5021092;28;20505;-60
2021/12/12 04:02:50;;;;;;;11.97;7.40;;;;;;;1.46;nan;99272.47;5023505;28;20153;-58
2021/12/12 04:05:15;;;;;;;8.93;5.80;;;;;;;1.49;nan;99265.81;5025042;28;20208;-58
2021/12/12 04:07:42;;;;;;;8.70;5.43;;;;;;;1.51;nan;99265.88;5028475;28;20842;-59
2021/12/12 04:10:12;;;;;;;9.20;5.80;;;;;;;1.59;nan;99267.78;5021309;28;20029;-58
2021/12/12 04:12:38;;;;;;;12.93;5.83;;;;;;;1.66;nan;99251.97;5024244;28;20116;-57
2021/12/12 04:15:04;;;;;;;10.07;7.00;;;;;;;1.63;nan;99269.59;5026131;28;20188;-59
2021/12/12 04:17:31;;;;;;;10.43;5.63;;;;;;;1.67;nan;99270.50;5028058;28;20045;-59
2021/12/12 04:20:00;;;;;;;13.33;6.23;;;;;;;1.70;nan;99278.16;5025415;28;20184;-60
2021/12/12 04:22:26;;;;;;;8.80;6.03;;;;;;;1.71;nan;99274.81;5025986;28;20030;-59
2021/12/12 04:24:55;;;;;;;7.77;5.60;;;;;;;1.71;nan;99263.06;5029531;28;20108;-60
2021/12/12 04:27:21;;;;;;;9.87;6.07;;;;;;;1.74;nan;99268.19;5030689;28;20087;-58
2021/12/12 04:29:50;;;;;;;9.80;5.67;;;;;;;1.73;nan;99278.28;5022116;28;20040;-61
2021/12/12 04:32:19;;;;;;;7.13;4.70;;;;;;;1.79;nan;99269.16;5029737;28;20034;-59
2021/12/12 04:34:50;;;;;;;6.20;5.03;;;;;;;1.83;nan;99262.50;5028507;28;20095;-60
2021/12/12 04:37:16;;;;;;;6.90;4.57;;;;;;;1.84;nan;99256.63;5029830;28;20041;-60
2021/12/12 04:39:47;;;;;;;7.83;4.10;;;;;;;1.91;nan;99271.13;5025763;28;20904;-58
2021/12/12 04:42:24;;;;;;;7.00;3.60;;;;;;;2.00;nan;99278.97;5027464;28;20081;-58
2021/12/12 04:44:54;;;;;;;5.37;4.10;;;;;;;1.99;nan;99274.75;5029250;28;20163;-58
2021/12/12 04:50:51;;;;;;;5.63;3.80;;;;;;;2.04;nan;99278.22;5026087;28;20040;-60
2021/12/12 04:53:25;;;;;;;5.83;4.03;;;;;;;1.96;nan;99287.28;5030622;28;20041;-59
2021/12/12 04:56:03;;;;;;;8.57;4.20;;;;;;;1.93;nan;99279.63;5026092;28;20044;-56
2021/12/12 04:58:41;;;;;;;7.53;5.30;;;;;;;1.88;nan;99271.06;5027794;28;20037;-59
2021/12/12 05:01:20;;;;;;;9.07;5.10;;;;;;;1.88;nan;99277.78;5027028;28;20748;-61
2021/12/12 05:03:54;;;;;;;6.70;5.00;;;;;;;1.88;nan;99292.97;5029490;28;20102;-60
2021/12/12 05:06:29;;;;;;;9.43;5.45;;;;;;;1.81;nan;99280.19;5024485;28;20045;-59
2021/12/12 05:09:06;;;;;;;8.70;6.28;;;;;;;1.85;nan;99303.84;5024995;28;20043;-59
2021/12/12 05:11:54;;;;;;;8.87;5.53;;;;;;;1.86;nan;99297.13;5028252;28;20045;-60
2021/12/12 05:14:25;;;;;;;10.03;5.60;;;;;;;1.88;nan;99303.94;5024499;28;20041;-58
2021/12/12 05:17:05;;;;;;;9.53;4.90;;;;;;;1.88;nan;99319.09;5022414;28;20045;-60
2021/12/12 05:19:33;;;;;;;9.43;5.47;;;;;;;1.88;nan;99324.16;5027987;28;20069;-56
2021/12/12 05:22:08;;;;;;;10.73;5.43;;;;;;;1.90;nan;99327.59;5029517;28;20120;-55
2021/12/12 05:24:36;;;;;;;12.77;5.40;;;;;;;1.86;nan;99318.22;5028597;28;20439;-58
2021/12/12 05:27:17;;;;;;;8.27;4.47;;;;;;;1.97;nan;99339.56;5024177;28;20042;-59
2021/12/12 05:29:59;;;;;;;7.97;6.20;;;;;;;1.94;nan;99331.91;5029374;28;20140;-61
2021/12/12 05:32:26;;;;;;;10.30;6.47;;;;;;;2.02;nan;99343.09;5026537;28;20041;-60
2021/12/12 05:34:54;;;;;;;9.53;6.10;;;;;;;2.02;nan;99330.44;5026387;28;20037;-59
2021/12/12 05:37:21;;;;;;;7.47;5.37;;;;;;;2.02;nan;99327.91;5022385;28;20568;-60
2021/12/12 05:39:47;;;;;;;9.17;5.80;;;;;;;2.04;nan;99322.88;5032022;28;20037;-56
2021/12/12 05:42:15;;;;;;;9.70;5.83;;;;;;;2.05;nan;99337.22;5026311;28;20125;-60
2021/12/12 05:44:41;;;;;;;9.47;6.47;;;;;;;2.09;nan;99324.72;5026930;28;20083;-58
2021/12/12 05:47:09;;;;;;;10.63;6.47;;;;;;;2.05;nan;99343.16;5030201;28;20060;-59
2021/12/12 05:49:36;;;;;;;10.83;6.50;;;;;;;1.98;nan;99325.25;5031022;28;20128;-56
2021/12/12 05:52:07;;;;;;;10.23;5.87;;;;;;;2.09;nan;99324.72;5030345;28;20041;-60
2021/12/12 05:54:32;;;;;;;8.87;5.93;;;;;;;2.04;nan;99336.38;5028918;28;20091;-59
2021/12/12 05:57:00;;;;;;;9.10;6.73;;;;;;;2.02;nan;99327.91;5027828;28;20046;-56
2021/12/12 05:59:27;;;;;;;10.40;7.00;;;;;;;2.07;nan;99346.59;5031446;28;20041;-59
2021/12/12 06:01:53;;;;;;;8.83;5.80;;;;;;;2.09;nan;99342.41;5029555;28;20474;-56
2021/12/12 06:04:19;;;;;;;10.17;6.23;;;;;;;2.10;nan;99325.56;5029311;28;20474;-57
2021/12/12 06:06:45;;;;;;;10.37;5.93;;;;;;;2.12;nan;99322.25;5026703;28;20030;-56
2021/12/12 06:09:12;;;;;;;9.40;5.93;;;;;;;2.14;nan;99327.34;5029357;28;20047;-57
2021/12/12 06:11:42;;;;;;;10.63;6.83;;;;;;;2.16;nan;99330.81;5026077;28;20048;-58
2021/12/12 06:14:08;;;;;;;9.57;6.07;;;;;;;2.15;nan;99314.75;5026052;28;20132;-57
2021/12/12 06:16:36;;;;;;;9.27;5.67;;;;;;;2.11;nan;99317.16;5026016;28;20347;-55
2021/12/12 06:19:24;;;;;;;11.30;6.83;;;;;;;2.13;nan;99311.31;5029859;28;20391;-58
2021/12/12 06:21:56;;;;;;;9.97;6.33;;;;;;;2.01;nan;99308.50;5022130;28;20041;-58
2021/12/12 06:24:23;;;;;;;10.87;7.17;;;;;;;2.00;nan;99331.19;5025243;28;20463;-56
2021/12/12 06:26:49;;;;;;;12.20;7.37;;;;;;;1.97;nan;99318.47;5027279;28;20041;-59
2021/12/12 06:29:16;;;;;;;11.30;6.53;;;;;;;1.96;nan;99324.34;5027290;28;20045;-58
2021/12/12 06:31:44;;;;;;;10.00;7.50;;;;;;;1.96;nan;99317.63;5023015;28;20442;-56
2021/12/12 06:34:11;;;;;;;12.07;8.83;;;;;;;2.03;nan;99326.25;5023972;28;20584;-56
2021/12/12 06:36:37;;;;;;;12.53;7.17;;;;;;;1.96;nan;99331.94;5026176;28;20037;-59
2021/12/12 06:39:07;;;;;;;13.63;7.80;;;;;;;1.99;nan;99332.91;5027672;28;20064;-60
2021/12/12 06:41:34;;;;;;;11.97;7.33;;;;;;;2.08;nan;99330.56;5022002;28;20041;-57
2021/12/12 06:44:03;;;;;;;10.77;7.10;;;;;;;2.18;nan;99324.09;5024871;28;20495;-59
2021/12/12 06:46:28;;;;;;;12.17;7.93;;;;;;;2.14;nan;99319.78;5023726;28;20041;-58
2021/12/12 06:48:54;;;;;;;11.13;7.47;;;;;;;2.10;nan;99323.03;5028385;28;20039;-58
2021/12/12 06:51:20;;;;;;;12.30;8.37;;;;;;;2.12;nan;99318.91;5020204;28;20039;-61
2021/12/12 06:53:47;;;;;;;9.70;7.20;;;;;;;2.15;nan;99314.75;5027085;28;20064;-59
2021/12/12 06:56:18;;;;;;;10.23;6.77;;;;;;;2.25;nan;99319.22;5026841;28;20095;-59
2021/12/12 06:58:43;;;;;;;11.70;7.77;;;;;;;2.24;nan;99314.13;5027136;28;21088;-58
2021/12/12 07:01:19;;;;;;;13.07;7.93;;;;;;;2.36;nan;99333.81;5023876;28;20034;-60
2021/12/12 07:03:47;;;;;;;12.53;7.37;;;;;;;2.36;nan;99327.09;5024646;28;20041;-60
2021/12/12 07:06:16;;;;;;;12.40;6.10;;;;;;;2.44;nan;99328.13;5027543;28;20041;-54
2021/12/12 07:08:41;;;;;;;13.53;7.17;;;;;;;2.44;nan;99334.84;5027808;28;20073;-60
2021/12/12 07:11:07;;;;;;;12.77;7.13;;;;;;;2.48;nan;99334.97;5022790;28;20079;-60
2021/12/12 07:13:33;;;;;;;12.27;7.03;;;;;;;2.50;nan;99340.94;5028838;28;20047;-59
2021/12/12 07:16:02;;;;;;;11.37;6.70;;;;;;;2.57;nan;99339.41;5026901;28;20124;-59
2021/12/12 07:18:31;;;;;;;13.20;7.50;;;;;;;2.58;nan;99326.78;5011963;28;20050;-60
2021/12/12 07:21:00;;;;;;;12.23;6.87;;;;;;;2.62;nan;99333.63;5023546;28;20038;-61
2021/12/12 07:23:27;;;;;;;12.07;6.53;;;;;;;2.62;nan;99337.84;5026069;28;20049;-59
2021/12/12 07:25:54;;;;;;;12.67;8.10;;;;;;;2.51;nan;99322.38;5028729;28;20367;-58
2021/12/12 07:28:19;;;;;;;10.27;6.43;;;;;;;2.48;nan;99341.69;5023389;28;20076;-58
2021/12/12 07:30:45;;;;;;;9.90;7.13;;;;;;;2.48;nan;99341.69;5022432;28;20562;-60
2021/12/12 07:33:12;;;;;;;9.47;6.70;;;;;;;2.48;nan;99324.84;5027947;28;20036;-59
2021/12/12 07:35:40;;;;;;;10.60;7.57;;;;;;;2.52;nan;99330.84;5027949;28;20076;-60
2021/12/12 07:38:08;;;;;;;8.10;6.37;;;;;;;2.56;nan;99323.34;5023281;28;20037;-59
2021/12/12 07:40:34;;;;;;;10.80;7.70;;;;;;;2.56;nan;99320.81;5025377;28;20131;-58
2021/12/12 07:43:00;;;;;;;8.77;6.57;;;;;;;2.65;nan;99323.56;5025891;28;20037;-59
2021/12/12 07:45:26;;;;;;;11.33;6.73;;;;;;;2.71;nan;99323.72;5026615;28;20387;-57
2021/12/12 07:47:53;;;;;;;10.27;6.77;;;;;;;2.61;nan;99331.06;5020846;28;20038;-59
2021/12/12 07:50:22;;;;;;;8.90;6.53;;;;;;;2.66;nan;99329.50;5023198;28;20048;-60
2021/12/12 07:52:49;;;;;;;10.73;6.40;;;;;;;2.76;nan;99334.78;5029232;28;20038;-60
2021/12/12 07:55:14;;;;;;;12.73;6.93;;;;;;;2.87;nan;99354.44;5030923;28;20482;-56
2021/12/12 07:57:40;;;;;;;9.63;6.50;;;;;;;2.96;nan;99347.94;5026847;28;20068;-59
2021/12/12 08:00:12;;;;;;;11.27;6.40;;;;;;;3.04;nan;99353.16;5029863;28;20072;-59
2021/12/12 08:02:38;;;;;;;7.00;4.87;;;;;;;3.05;nan;99354.88;5029898;28;20046;-58
2021/12/12 08:05:05;;;;;;;8.63;5.73;;;;;;;3.05;nan;99344.75;5028073;28;20048;-58
2021/12/12 08:07:33;;;;;;;10.83;6.23;;;;;;;3.04;nan;99356.56;5027370;28;20239;-58
2021/12/12 08:09:59;;;;;;;8.87;6.23;;;;;;;3.11;nan;99350.78;5025828;28;20136;-60
2021/12/12 08:12:27;;;;;;;7.00;4.67;;;;;;;3.20;nan;99362.81;5030349;28;20142;-59
2021/12/12 08:14:53;;;;;;;7.17;5.07;;;;;;;3.21;nan;99364.53;5029515;28;20053;-59
2021/12/12 08:17:20;;;;;;;9.47;5.37;;;;;;;3.18;nan;99367.81;5028022;28;20036;-58
2021/12/12 08:19:48;;;;;;;9.60;5.70;;;;;;;3.11;nan;99368.53;5026429;28;20033;-60
2021/12/12 08:22:14;;;;;;;6.90;5.37;;;;;;;3.18;nan;99361.94;5031985;28;20055;-59
2021/12/12 08:24:40;;;;;;;10.93;5.83;;;;;;;3.11;nan;99372.72;5024867;28;20470;-60
2021/12/12 08:27:09;;;;;;;6.63;5.23;;;;;;;3.13;nan;99368.56;5027238;28;20055;-60
2021/12/12 08:29:36;;;;;;;7.33;4.93;;;;;;;3.13;nan;99353.38;5030294;28;20745;-59
2021/12/12 08:32:08;;;;;;;7.27;4.80;;;;;;;3.07;nan;99373.47;5030867;28;20391;-59
2021/12/12 08:34:34;;;;;;;8.23;4.93;;;;;;;3.05;nan;99372.59;5026652;28;20044;-59
2021/12/12 08:37:01;;;;;;;8.37;5.33;;;;;;;3.01;nan;99365.75;5026325;28;20130;-59
2021/12/12 08:39:27;;;;;;;6.90;4.87;;;;;;;3.03;nan;99377.63;5026618;28;20478;-59
2021/12/12 08:41:54;;;;;;;6.53;4.77;;;;;;;3.09;nan;99374.38;5032041;28;20045;-57
2021/12/12 08:44:20;;;;;;;9.60;5.20;;;;;;;3.04;nan;99398.75;5025925;28;20064;-56
2021/12/12 08:46:50;;;;;;;6.37;4.87;;;;;;;3.08;nan;99377.72;5025282;28;20661;-56
2021/12/12 08:49:18;;;;;;;7.77;4.67;;;;;;;3.06;nan;99412.28;5027215;28;20159;-58
2021/12/12 08:51:50;;;;;;;6.67;4.33;;;;;;;3.10;nan;99373.53;5029327;28;20456;-58
2021/12/12 08:54:24;;;;;;;7.57;5.17;;;;;;;3.08;nan;99376.06;5025067;28;20046;-59
2021/12/12 08:56:54;;;;;;;6.67;4.93;;;;;;;3.07;nan;99396.28;5027224;28;20060;-59
2021/12/12 08:59:26;;;;;;;6.93;5.13;;;;;;;3.07;nan;99384.47;5030626;28;20207;-58
2021/12/12 09:01:56;;;;;;;8.83;5.53;;;;;;;3.11;nan;99386.25;5030231;28;20041;-56
2021/12/12 09:04:22;;;;;;;10.30;5.50;;;;;;;3.14;nan;99388.84;5031318;28;20099;-57
2021/12/12 09:06:56;;;;;;;5.73;4.13;;;;;;;3.20;nan;99391.53;5029103;28;20044;-56
2021/12/12 09:09:29;;;;;;;6.37;4.37;;;;;;;3.30;nan;99392.59;5030957;28;20083;-57
2021/12/12 09:12:00;;;;;;;8.10;5.03;;;;;;;3.27;nan;99402.63;5025940;28;20087;-59
2021/12/12 09:14:25;;;;;;;6.97;5.20;;;;;;;3.20;nan;99391.53;5022268;28;20482;-61
2021/12/12 09:17:09;;;;;;;5.93;3.63;;;;;;;3.31;nan;99390.91;5026386;28;20120;-58
2021/12/12 09:19:48;;;;;;;7.43;4.63;;;;;;;3.37;nan;99379.22;5023044;28;20172;-60
2021/12/12 09:22:22;;;;;;;8.17;5.37;;;;;;;3.44;nan;99375.13;5019167;28;20372;-57
2021/12/12 09:24:58;;;;;;;8.38;4.97;;;;;;;3.44;nan;99375.97;5024754;28;20502;-57
2021/12/12 09:27:26;;;;;;;;;;;;;;;3.49;nan;99376.94;5026064;28;20037;-59
2021/12/12 09:29:58;;;;;;;9.70;5.40;;;;;;;3.56;nan;99386.41;5026333;28;19998;-59
2021/12/12 09:32:52;;;;;;;7.13;4.33;;;;;;;3.61;nan;99410.16;5025609;28;20038;-58
2021/12/12 09:35:35;;;;;;;7.23;5.03;;;;;;;3.59;nan;99399.13;5028111;28;20030;-57
2021/12/12 09:38:15;;;;;;;7.17;5.00;;;;;;;3.59;nan;99388.13;5025721;28;20664;-59
2021/12/12 09:41:09;;;;;;;7.33;4.97;;;;;;;3.65;nan;99389.09;5025326;28;20041;-55
2021/12/12 09:43:53;;;;;;;6.57;4.10;;;;;;;3.68;nan;99385.81;5028761;28;20056;-57
2021/12/12 09:46:27;;;;;;;6.60;4.73;;;;;;;3.74;nan;99395.19;5030605;28;20376;-57
2021/12/12 09:52:39;;;;;;;7.00;4.77;;;;;;;3.72;nan;99402.78;5023985;28;20053;-55
2021/12/12 09:55:12;;;;;;;5.80;4.07;;;;;;;3.78;nan;99399.53;5027374;28;20044;-58
2021/12/12 09:57:42;;;;;;;7.80;3.60;;;;;;;3.83;nan;99401.31;5026240;28;20056;-58
2021/12/12 10:00:29;;;;;;;5.07;4.17;;;;;;;3.90;nan;99377.81;5022498;28;20120;-57
2021/12/12 10:03:13;;;;;;;6.57;4.47;;;;;;;4.16;nan;99380.81;5013467;28;20616;-60
2021/12/12 10:06:13;;;;;;;8.33;4.77;;;;;;;4.42;nan;99379.59;5022628;28;20047;-56
2021/12/12 10:08:47;;;;;;;5.90;4.07;;;;;;;4.54;nan;99395.03;5016420;28;20054;-58
2021/12/12 10:11:31;;;;;;;9.60;4.97;;;;;;;4.73;nan;99390.25;5014898;28;20040;-57
2021/12/12 10:13:56;;;;;;;10.07;6.43;;;;;;;4.67;nan;99390.19;5025179;28;20532;-58
2021/12/12 10:16:33;;;;;;;7.70;4.67;;;;;;;4.60;nan;99397.69;5019937;28;20438;-59
2021/12/12 10:19:22;;;;;;;6.67;4.97;;;;;;;4.45;nan;99388.97;5023836;28;20045;-57
2021/12/12 10:21:58;;;;;;;9.30;6.10;;;;;;;4.23;nan;99381.78;5026952;28;20088;-57
2021/12/12 10:24:31;;;;;;;9.57;5.77;;;;;;;4.11;nan;99397.66;5028308;28;20041;-56
2021/12/12 10:27:30;;;;;;;9.43;5.97;;;;;;;4.02;nan;99410.16;5020751;28;20081;-59
2021/12/12 10:30:08;;;;;;;9.53;5.83;;;;;;;4.06;nan;99404.31;5025458;28;20068;-57
2021/12/12 10:32:44;;;;;;;7.77;5.77;;;;;;;3.96;nan;99398.19;5027982;28;20037;-56
2021/12/12 10:35:24;;;;;;;9.50;7.57;;;;;;;3.97;nan;99424.41;5027740;28;20092;-57
2021/12/12 10:37:57;;;;;;;13.30;6.47;;;;;;;4.06;nan;99409.38;5022390;28;20124;-55
2021/12/12 10:40:29;;;;;;;8.97;6.60;;;;;;;4.10;nan;99401.00;5026203;28;20107;-58
2021/12/12 10:42:59;;;;;;;9.73;6.77;;;;;;;4.19;nan;99425.69;5026158;28;20041;-56
2021/12/12 10:45:49;;;;;;;12.70;7.30;;;;;;;4.23;nan;99424.94;5018540;28;20125;-53
2021/12/12 10:48:18;;;;;;;9.97;7.37;;;;;;;4.50;nan;99407.63;5019406;28;20137;-54
2021/12/12 10:51:02;;;;;;;13.10;7.07;;;;;;;4.72;nan;99416.47;5022839;28;20046;-57
2021/12/12 10:53:34;;;;;;;6.67;4.90;;;;;;;4.71;nan;99419.88;5023404;28;20033;-58
2021/12/12 10:56:37;;;;;;;8.73;6.07;;;;;;;4.50;nan;99402.56;5019020;28;20037;-59
2021/12/12 10:59:18;;;;;;;8.73;5.70;;;;;;;4.52;nan;99408.53;5021637;28;20037;-54
2021/12/12 11:01:46;;;;;;;9.90;6.07;;;;;;;4.47;nan;99397.44;5016114;28;20049;-58
2021/12/12 11:04:21;;;;;;;9.20;6.33;;;;;;;4.59;nan;99398.50;5022765;28;20108;-58
2021/12/12 11:07:10;;;;;;;8.60;5.60;;;;;;;4.54;nan;99402.66;5019282;28;20073;-54
2021/12/12 11:09:54;;;;;;;7.03;5.23;;;;;;;4.52;nan;99389.09;5025746;28;20033;-57
2021/12/12 11:12:34;;;;;;;7.57;5.15;;;;;;;4.69;nan;99398.66;5025839;28;20050;-59
2021/12/12 11:15:07;;;;;;;11.43;5.27;;;;;;;4.71;nan;99386.88;5019648;28;20374;-58
2021/12/12 11:17:41;;;;;;;8.80;5.87;;;;;;;4.74;nan;99397.91;5020275;28;20515;-59
2021/12/12 11:20:13;;;;;;;8.73;4.23;;;;;;;4.65;nan;99401.97;5025684;28;20071;-59
2021/12/12 11:22:50;;;;;;;6.53;4.70;;;;;;;4.85;nan;99406.56;5023657;28;20626;-56
2021/12/12 11:25:24;;;;;;;7.53;4.73;;;;;;;4.76;nan;99411.47;5014766;28;20037;-56
2021/12/12 11:28:01;;;;;;;6.23;4.23;;;;;;;4.79;nan;99401.41;5027097;28;20069;-56
2021/12/12 11:30:33;;;;;;;7.00;4.70;;;;;;;4.72;nan;99391.09;5024685;28;20475;-58
2021/12/12 11:33:01;;;;;;;6.13;4.57;;;;;;;4.69;nan;99399.53;5024521;28;20088;-58
2021/12/12 11:35:28;;;;;;;5.97;4.27;;;;;;;4.80;nan;99412.38;5019446;28;20049;-60
2021/12/12 11:38:14;;;;;;;4.80;3.93;;;;;;;4.95;nan;99405.03;5025807;28;20047;-60
2021/12/12 11:41:07;;;;;;;7.73;4.87;;;;;;;5.16;nan;99407.91;5025473;28;20048;-59
2021/12/12 11:43:57;;;;;;;7.00;4.03;;;;;;;5.11;nan;99404.44;5023541;28;20501;-57
2021/12/12 11:46:32;;;;;;;5.93;3.97;;;;;;;5.05;nan;99399.22;5020714;28;20054;-61
2021/12/12 11:49:05;;;;;;;5.13;3.58;;;;;;;4.91;nan;99399.03;5017314;28;20045;-60
2021/12/12 11:51:36;;;;;;;7.13;4.27;;;;;;;4.82;nan;99390.41;5018162;28;20053;-58
2021/12/12 11:54:28;;;;;;;10.13;6.17;;;;;;;4.63;nan;99399.41;5022749;28;20399;-60
2021/12/12 11:57:00;;;;;;;7.83;5.17;;;;;;;4.58;nan;99406.13;5024721;28;20235;-54
2021/12/12 11:59:34;;;;;;;8.57;5.43;;;;;;;4.57;nan;99402.72;5019344;28;20034;-58
2021/12/12 12:02:29;;;;;;;5.07;4.40;;;;;;;4.49;nan;99404.28;5019258;28;20439;-54
2021/12/12 12:05:04;;;;;;;6.90;4.88;;;;;;;4.49;nan;99398.34;5019731;28;20042;-57
2021/12/12 12:07:51;;;;;;;7.57;5.32;;;;;;;4.32;nan;99392.09;5027935;28;20180;-57
2021/12/12 12:10:26;;;;;;;6.50;4.93;;;;;;;4.21;nan;99394.44;5022080;28;20045;-53
2021/12/12 12:13:19;;;;;;;7.93;5.20;;;;;;;4.12;nan;99395.13;5023022;28;20439;-55
2021/12/12 12:16:09;;;;;;;7.23;5.03;;;;;;;4.19;nan;99400.31;5025562;28;20136;-56
2021/12/12 12:19:13;;;;;;;8.10;5.00;;;;;;;4.19;nan;99396.09;5025614;28;20558;-58
2021/12/12 12:21:59;;;;;;;7.47;4.70;;;;;;;4.22;nan;99400.38;4941960;28;20607;-55
2021/12/12 12:24:57;;;;;;;8.05;4.95;;;;;;;4.21;nan;99396.97;4940934;28;20062;-55
2021/12/12 12:27:41;;;;;;;7.63;5.53;;;;;;;4.31;nan;99401.41;4945921;28;20122;-57
2021/12/12 12:30:31;;;;;;;8.73;5.17;;;;;;;4.27;nan;99422.47;4940069;28;20047;-57
2021/12/12 12:33:17;;;;;;;7.30;4.77;;;;;;;4.29;nan;99394.56;4936707;28;20518;-58
2021/12/12 12:36:23;;;;;;;9.27;5.20;;;;;;;4.33;nan;99409.88;4942142;28;20412;-56
2021/12/12 12:38:51;;;;;;;7.82;4.82;;;;;;;4.37;nan;99420.97;4944571;28;20047;-62